sensor_id;sensor_type;location;lat;lon;timestamp;temperature;humidity
3923;DHT22;1976;51.694;6.256;2022-07-22T00:01:45;17.40;99.90
3923;DHT22;1976;51.694;6.256;2022-07-22T00:04:11;17.30;99.90
3923;DHT22;1976;51.694;6.256;2022-07-22T00:06:37;17.40;99.90
3923;DHT22;1976;51.694;6.256;2022-07-22T00:09:03;17.40;99.90
3923;DHT22;1976;51.694;6.256;2022-07-22T00:11:29;17.40;99.90
3923;DHT22;1976;51.694;6.256;2022-07-22T00:13:55;17.50;99.90
3923;DHT22;1976;51.694;6.256;2022-07-22T00:16:20;17.50;99.90
3923;DHT22;1976;51.694;6.256;2022-07-22T00:18:46;17.50;99.90
3923;DHT22;1976;51.694;6.256;2022-07-22T00:23:38;17.50;99.90
3923;DHT22;1976;51.694;6.256;2022-07-22T00:26:04;17.60;99.90
3923;DHT22;1976;51.694;6.256;2022-07-22T00:28:29;17.60;99.90
3923;DHT22;1976;51.694;6.256;2022-07-22T00:30:55;17.60;99.90
3923;DHT22;1976;51.694;6.256;2022-07-22T00:35:48;17.60;99.90
3923;DHT22;1976;51.694;6.256;2022-07-22T00:38:13;17.60;99.90
3923;DHT22;1976;51.694;6.256;2022-07-22T00:40:40;17.70;99.90
3923;DHT22;1976;51.694;6.256;2022-07-22T00:43:05;17.70;99.90
3923;DHT22;1976;51.694;6.256;2022-07-22T00:45:31;17.70;99.90
3923;DHT22;1976;51.694;6.256;2022-07-22T00:47:57;17.70;99.90
3923;DHT22;1976;51.694;6.256;2022-07-22T00:50:22;17.70;99.90
3923;DHT22;1976;51.694;6.256;2022-07-22T00:52:49;17.70;99.90
3923;DHT22;1976;51.694;6.256;2022-07-22T00:55:15;17.70;99.90
3923;DHT22;1976;51.694;6.256;2022-07-22T00:57:41;17.70;99.90
3923;DHT22;1976;51.694;6.256;2022-07-22T01:00:11;17.70;99.90
3923;DHT22;1976;51.694;6.256;2022-07-22T01:02:37;17.60;99.90
3923;DHT22;1976;51.694;6.256;2022-07-22T01:05:05;17.50;99.90
3923;DHT22;1976;51.694;6.256;2022-07-22T01:07:30;17.50;99.90
3923;DHT22;1976;51.694;6.256;2022-07-22T01:09:56;17.50;99.90
3923;DHT22;1976;51.694;6.256;2022-07-22T01:12:22;17.40;99.90
3923;DHT22;1976;51.694;6.256;2022-07-22T01:14:47;17.50;99.90
3923;DHT22;1976;51.694;6.256;2022-07-22T01:17:13;17.40;99.90
3923;DHT22;1976;51.694;6.256;2022-07-22T01:19:39;17.40;99.90
3923;DHT22;1976;51.694;6.256;2022-07-22T01:22:05;17.40;99.90
3923;DHT22;1976;51.694;6.256;2022-07-22T01:24:31;17.30;99.90
3923;DHT22;1976;51.694;6.256;2022-07-22T01:26:58;17.30;99.90
3923;DHT22;1976;51.694;6.256;2022-07-22T01:29:23;17.40;99.90
3923;DHT22;1976;51.694;6.256;2022-07-22T01:31:49;17.30;99.90
3923;DHT22;1976;51.694;6.256;2022-07-22T01:34:15;17.20;99.90
3923;DHT22;1976;51.694;6.256;2022-07-22T01:36:40;17.10;99.90
3923;DHT22;1976;51.694;6.256;2022-07-22T01:39:06;17.10;99.90
3923;DHT22;1976;51.694;6.256;2022-07-22T01:41:32;17.10;99.90
3923;DHT22;1976;51.694;6.256;2022-07-22T01:43:57;17.10;99.90
3923;DHT22;1976;51.694;6.256;2022-07-22T01:46:23;17.10;99.90
3923;DHT22;1976;51.694;6.256;2022-07-22T01:48:51;17.10;99.90
3923;DHT22;1976;51.694;6.256;2022-07-22T01:51:17;17.10;99.90
3923;DHT22;1976;51.694;6.256;2022-07-22T01:53:43;17.00;99.90
3923;DHT22;1976;51.694;6.256;2022-07-22T01:56:10;17.10;99.90
3923;DHT22;1976;51.694;6.256;2022-07-22T01:58:35;17.10;99.90
3923;DHT22;1976;51.694;6.256;2022-07-22T02:01:01;17.10;99.90
3923;DHT22;1976;51.694;6.256;2022-07-22T02:03:27;17.10;99.90
3923;DHT22;1976;51.694;6.256;2022-07-22T02:05:53;17.10;99.90
3923;DHT22;1976;51.694;6.256;2022-07-22T02:08:18;17.10;99.90
3923;DHT22;1976;51.694;6.256;2022-07-22T02:10:44;17.10;99.90
3923;DHT22;1976;51.694;6.256;2022-07-22T02:13:10;17.10;99.90
3923;DHT22;1976;51.694;6.256;2022-07-22T02:15:36;17.10;99.90
3923;DHT22;1976;51.694;6.256;2022-07-22T02:18:13;17.10;99.90
3923;DHT22;1976;51.694;6.256;2022-07-22T02:20:39;17.10;99.90
3923;DHT22;1976;51.694;6.256;2022-07-22T02:23:05;17.10;99.90
3923;DHT22;1976;51.694;6.256;2022-07-22T02:25:31;17.10;99.90
3923;DHT22;1976;51.694;6.256;2022-07-22T02:27:56;17.20;99.90
3923;DHT22;1976;51.694;6.256;2022-07-22T02:30:22;17.20;99.90
3923;DHT22;1976;51.694;6.256;2022-07-22T02:32:48;17.30;99.90
3923;DHT22;1976;51.694;6.256;2022-07-22T02:35:13;17.30;99.90
3923;DHT22;1976;51.694;6.256;2022-07-22T02:37:39;17.30;99.90
3923;DHT22;1976;51.694;6.256;2022-07-22T02:40:06;17.30;99.90
3923;DHT22;1976;51.694;6.256;2022-07-22T02:42:33;17.20;99.90
3923;DHT22;1976;51.694;6.256;2022-07-22T02:44:59;17.20;99.90
3923;DHT22;1976;51.694;6.256;2022-07-22T02:47:25;17.20;99.90
3923;DHT22;1976;51.694;6.256;2022-07-22T02:49:51;17.20;99.90
3923;DHT22;1976;51.694;6.256;2022-07-22T02:52:17;17.20;99.90
3923;DHT22;1976;51.694;6.256;2022-07-22T02:54:42;17.20;99.90
3923;DHT22;1976;51.694;6.256;2022-07-22T02:57:08;17.30;99.90
3923;DHT22;1976;51.694;6.256;2022-07-22T02:59:34;17.30;99.90
3923;DHT22;1976;51.694;6.256;2022-07-22T03:01:59;17.30;99.90
3923;DHT22;1976;51.694;6.256;2022-07-22T03:04:25;17.40;99.90
3923;DHT22;1976;51.694;6.256;2022-07-22T03:06:51;17.40;99.90
3923;DHT22;1976;51.694;6.256;2022-07-22T03:09:17;17.40;99.90
3923;DHT22;1976;51.694;6.256;2022-07-22T03:11:42;17.40;99.90
3923;DHT22;1976;51.694;6.256;2022-07-22T03:14:08;17.40;99.90
3923;DHT22;1976;51.694;6.256;2022-07-22T03:16:34;17.40;99.90
3923;DHT22;1976;51.694;6.256;2022-07-22T03:18:59;17.40;99.90
3923;DHT22;1976;51.694;6.256;2022-07-22T03:21:25;17.40;99.90
3923;DHT22;1976;51.694;6.256;2022-07-22T03:23:51;17.50;99.90
3923;DHT22;1976;51.694;6.256;2022-07-22T03:26:20;17.50;99.90
3923;DHT22;1976;51.694;6.256;2022-07-22T03:28:47;17.50;99.90
3923;DHT22;1976;51.694;6.256;2022-07-22T03:31:13;17.50;99.90
3923;DHT22;1976;51.694;6.256;2022-07-22T03:33:38;17.50;99.90
3923;DHT22;1976;51.694;6.256;2022-07-22T03:36:04;17.40;99.90
3923;DHT22;1976;51.694;6.256;2022-07-22T03:38:36;17.40;99.90
3923;DHT22;1976;51.694;6.256;2022-07-22T03:41:02;17.30;99.90
3923;DHT22;1976;51.694;6.256;2022-07-22T03:43:28;17.30;99.90
3923;DHT22;1976;51.694;6.256;2022-07-22T03:45:53;17.20;99.90
3923;DHT22;1976;51.694;6.256;2022-07-22T03:48:19;17.20;99.90
3923;DHT22;1976;51.694;6.256;2022-07-22T03:50:44;17.20;99.90
3923;DHT22;1976;51.694;6.256;2022-07-22T03:53:10;17.20;99.90
3923;DHT22;1976;51.694;6.256;2022-07-22T03:55:36;17.20;99.90
3923;DHT22;1976;51.694;6.256;2022-07-22T03:58:02;17.20;99.90
3923;DHT22;1976;51.694;6.256;2022-07-22T04:00:27;17.30;99.90
3923;DHT22;1976;51.694;6.256;2022-07-22T04:02:53;17.40;99.90
3923;DHT22;1976;51.694;6.256;2022-07-22T04:05:19;17.50;99.90
3923;DHT22;1976;51.694;6.256;2022-07-22T04:07:44;17.50;99.90
3923;DHT22;1976;51.694;6.256;2022-07-22T04:10:10;17.60;99.90
3923;DHT22;1976;51.694;6.256;2022-07-22T04:12:38;17.60;99.90
3923;DHT22;1976;51.694;6.256;2022-07-22T04:15:05;17.60;99.90
3923;DHT22;1976;51.694;6.256;2022-07-22T04:17:32;17.70;99.90
3923;DHT22;1976;51.694;6.256;2022-07-22T04:19:58;17.70;99.90
3923;DHT22;1976;51.694;6.256;2022-07-22T04:22:24;17.70;99.90
3923;DHT22;1976;51.694;6.256;2022-07-22T04:24:50;17.80;99.90
3923;DHT22;1976;51.694;6.256;2022-07-22T04:27:16;17.80;99.90
3923;DHT22;1976;51.694;6.256;2022-07-22T04:29:41;17.80;99.90
3923;DHT22;1976;51.694;6.256;2022-07-22T04:34:33;17.90;99.90
3923;DHT22;1976;51.694;6.256;2022-07-22T04:36:59;17.90;99.90
3923;DHT22;1976;51.694;6.256;2022-07-22T04:39:24;17.90;99.90
3923;DHT22;1976;51.694;6.256;2022-07-22T04:41:50;17.90;99.90
3923;DHT22;1976;51.694;6.256;2022-07-22T04:44:16;17.90;99.90
3923;DHT22;1976;51.694;6.256;2022-07-22T04:46:41;17.90;99.90
3923;DHT22;1976;51.694;6.256;2022-07-22T04:49:07;17.90;99.90
3923;DHT22;1976;51.694;6.256;2022-07-22T04:51:32;17.90;99.90
3923;DHT22;1976;51.694;6.256;2022-07-22T04:53:58;17.80;99.90
3923;DHT22;1976;51.694;6.256;2022-07-22T04:56:24;17.80;99.90
3923;DHT22;1976;51.694;6.256;2022-07-22T04:58:49;17.80;99.90
3923;DHT22;1976;51.694;6.256;2022-07-22T05:01:16;17.80;99.90
3923;DHT22;1976;51.694;6.256;2022-07-22T05:03:42;17.80;99.90
3923;DHT22;1976;51.694;6.256;2022-07-22T05:06:08;17.80;99.90
3923;DHT22;1976;51.694;6.256;2022-07-22T05:08:34;17.80;99.90
3923;DHT22;1976;51.694;6.256;2022-07-22T05:11:00;17.80;99.90
3923;DHT22;1976;51.694;6.256;2022-07-22T05:13:26;17.90;99.90
3923;DHT22;1976;51.694;6.256;2022-07-22T05:15:52;17.90;99.90
3923;DHT22;1976;51.694;6.256;2022-07-22T05:18:18;18.00;99.90
3923;DHT22;1976;51.694;6.256;2022-07-22T05:20:43;18.00;99.90
3923;DHT22;1976;51.694;6.256;2022-07-22T05:23:09;18.00;99.90
3923;DHT22;1976;51.694;6.256;2022-07-22T05:25:35;18.10;99.90
3923;DHT22;1976;51.694;6.256;2022-07-22T05:28:01;18.10;99.90
3923;DHT22;1976;51.694;6.256;2022-07-22T05:30:26;18.20;99.90
3923;DHT22;1976;51.694;6.256;2022-07-22T05:32:53;18.20;99.90
3923;DHT22;1976;51.694;6.256;2022-07-22T05:35:19;18.20;99.90
3923;DHT22;1976;51.694;6.256;2022-07-22T05:37:45;18.20;99.90
3923;DHT22;1976;51.694;6.256;2022-07-22T05:40:11;18.20;99.90
3923;DHT22;1976;51.694;6.256;2022-07-22T05:42:37;18.20;99.90
3923;DHT22;1976;51.694;6.256;2022-07-22T05:45:03;18.20;99.90
3923;DHT22;1976;51.694;6.256;2022-07-22T05:47:29;18.30;99.90
3923;DHT22;1976;51.694;6.256;2022-07-22T05:49:55;18.40;99.90
3923;DHT22;1976;51.694;6.256;2022-07-22T05:52:21;18.50;99.90
3923;DHT22;1976;51.694;6.256;2022-07-22T05:54:46;18.50;99.90
3923;DHT22;1976;51.694;6.256;2022-07-22T05:57:12;18.60;99.90
3923;DHT22;1976;51.694;6.256;2022-07-22T05:59:37;18.60;99.90
3923;DHT22;1976;51.694;6.256;2022-07-22T06:02:04;18.70;99.90
3923;DHT22;1976;51.694;6.256;2022-07-22T06:04:29;18.80;99.90
3923;DHT22;1976;51.694;6.256;2022-07-22T06:06:55;18.90;99.90
3923;DHT22;1976;51.694;6.256;2022-07-22T06:09:21;19.10;99.90
3923;DHT22;1976;51.694;6.256;2022-07-22T06:11:46;19.10;99.90
3923;DHT22;1976;51.694;6.256;2022-07-22T06:14:12;19.30;99.90
3923;DHT22;1976;51.694;6.256;2022-07-22T06:16:38;19.30;99.90
3923;DHT22;1976;51.694;6.256;2022-07-22T06:19:04;19.50;99.90
3923;DHT22;1976;51.694;6.256;2022-07-22T06:21:29;19.60;99.90
3923;DHT22;1976;51.694;6.256;2022-07-22T06:23:55;19.70;99.90
3923;DHT22;1976;51.694;6.256;2022-07-22T06:26:21;19.80;99.90
3923;DHT22;1976;51.694;6.256;2022-07-22T06:28:46;19.80;99.90
3923;DHT22;1976;51.694;6.256;2022-07-22T06:31:12;20.00;99.90
3923;DHT22;1976;51.694;6.256;2022-07-22T06:33:38;20.10;99.90
3923;DHT22;1976;51.694;6.256;2022-07-22T06:36:04;20.20;99.90
3923;DHT22;1976;51.694;6.256;2022-07-22T06:38:30;20.20;99.90
3923;DHT22;1976;51.694;6.256;2022-07-22T06:40:55;20.30;99.90
3923;DHT22;1976;51.694;6.256;2022-07-22T06:43:21;20.40;99.90
3923;DHT22;1976;51.694;6.256;2022-07-22T06:45:47;20.50;99.90
3923;DHT22;1976;51.694;6.256;2022-07-22T06:48:13;20.60;99.90
3923;DHT22;1976;51.694;6.256;2022-07-22T06:50:39;20.80;99.90
3923;DHT22;1976;51.694;6.256;2022-07-22T06:53:05;20.90;99.90
3923;DHT22;1976;51.694;6.256;2022-07-22T06:55:31;21.10;99.90
3923;DHT22;1976;51.694;6.256;2022-07-22T06:57:57;21.20;99.90
3923;DHT22;1976;51.694;6.256;2022-07-22T07:00:23;21.40;99.90
3923;DHT22;1976;51.694;6.256;2022-07-22T07:02:48;21.50;99.90
3923;DHT22;1976;51.694;6.256;2022-07-22T07:05:14;21.60;99.90
3923;DHT22;1976;51.694;6.256;2022-07-22T07:07:40;21.60;99.90
3923;DHT22;1976;51.694;6.256;2022-07-22T07:10:06;21.70;99.90
3923;DHT22;1976;51.694;6.256;2022-07-22T07:12:32;21.80;99.90
3923;DHT22;1976;51.694;6.256;2022-07-22T07:14:57;22.00;99.90
3923;DHT22;1976;51.694;6.256;2022-07-22T07:17:23;22.00;99.90
3923;DHT22;1976;51.694;6.256;2022-07-22T07:19:49;22.10;99.90
3923;DHT22;1976;51.694;6.256;2022-07-22T07:22:15;22.30;99.90
3923;DHT22;1976;51.694;6.256;2022-07-22T07:24:41;22.40;99.90
3923;DHT22;1976;51.694;6.256;2022-07-22T07:27:07;22.50;99.90
3923;DHT22;1976;51.694;6.256;2022-07-22T07:29:33;22.60;99.90
3923;DHT22;1976;51.694;6.256;2022-07-22T07:34:24;22.70;99.90
3923;DHT22;1976;51.694;6.256;2022-07-22T07:36:50;22.70;99.90
3923;DHT22;1976;51.694;6.256;2022-07-22T07:39:16;22.70;99.90
3923;DHT22;1976;51.694;6.256;2022-07-22T07:41:42;22.80;99.90
3923;DHT22;1976;51.694;6.256;2022-07-22T07:44:09;22.90;99.90
3923;DHT22;1976;51.694;6.256;2022-07-22T07:46:38;23.00;99.90
3923;DHT22;1976;51.694;6.256;2022-07-22T07:49:04;23.10;99.90
3923;DHT22;1976;51.694;6.256;2022-07-22T07:51:29;23.10;99.90
3923;DHT22;1976;51.694;6.256;2022-07-22T07:56:22;23.30;99.90
3923;DHT22;1976;51.694;6.256;2022-07-22T07:58:48;23.40;99.90
3923;DHT22;1976;51.694;6.256;2022-07-22T08:03:40;23.70;99.90
3923;DHT22;1976;51.694;6.256;2022-07-22T08:06:06;23.90;99.90
3923;DHT22;1976;51.694;6.256;2022-07-22T08:08:32;24.10;99.90
3923;DHT22;1976;51.694;6.256;2022-07-22T08:10:57;24.20;99.90
3923;DHT22;1976;51.694;6.256;2022-07-22T08:13:23;24.30;99.90
3923;DHT22;1976;51.694;6.256;2022-07-22T08:15:49;24.60;99.90
3923;DHT22;1976;51.694;6.256;2022-07-22T08:18:14;24.60;99.90
3923;DHT22;1976;51.694;6.256;2022-07-22T08:20:40;24.70;99.90
3923;DHT22;1976;51.694;6.256;2022-07-22T08:23:06;24.70;99.90
3923;DHT22;1976;51.694;6.256;2022-07-22T08:25:32;24.80;99.90
3923;DHT22;1976;51.694;6.256;2022-07-22T08:27:58;24.80;99.90
3923;DHT22;1976;51.694;6.256;2022-07-22T08:30:24;24.80;99.90
3923;DHT22;1976;51.694;6.256;2022-07-22T08:32:53;24.80;99.90
3923;DHT22;1976;51.694;6.256;2022-07-22T08:35:18;24.80;99.90
3923;DHT22;1976;51.694;6.256;2022-07-22T08:37:44;25.00;99.90
3923;DHT22;1976;51.694;6.256;2022-07-22T08:40:11;25.00;99.90
3923;DHT22;1976;51.694;6.256;2022-07-22T08:42:41;25.10;99.90
3923;DHT22;1976;51.694;6.256;2022-07-22T08:45:07;25.00;99.90
3923;DHT22;1976;51.694;6.256;2022-07-22T08:47:33;25.10;99.90
3923;DHT22;1976;51.694;6.256;2022-07-22T08:49:59;25.10;99.90
3923;DHT22;1976;51.694;6.256;2022-07-22T08:52:25;25.00;99.90
3923;DHT22;1976;51.694;6.256;2022-07-22T08:54:51;24.90;99.90
3923;DHT22;1976;51.694;6.256;2022-07-22T08:57:17;24.90;99.90
3923;DHT22;1976;51.694;6.256;2022-07-22T09:00:10;24.90;99.90
3923;DHT22;1976;51.694;6.256;2022-07-22T09:02:39;25.00;99.90
3923;DHT22;1976;51.694;6.256;2022-07-22T09:05:07;25.00;99.90
3923;DHT22;1976;51.694;6.256;2022-07-22T09:07:35;25.00;99.90
3923;DHT22;1976;51.694;6.256;2022-07-22T09:10:04;25.10;99.90
3923;DHT22;1976;51.694;6.256;2022-07-22T09:14:59;25.20;99.90
3923;DHT22;1976;51.694;6.256;2022-07-22T09:17:28;25.30;99.90
3923;DHT22;1976;51.694;6.256;2022-07-22T09:19:56;25.40;99.90
3923;DHT22;1976;51.694;6.256;2022-07-22T09:22:39;25.40;99.90
3923;DHT22;1976;51.694;6.256;2022-07-22T09:25:27;25.50;99.90
3923;DHT22;1976;51.694;6.256;2022-07-22T09:30:34;26.20;99.90
3923;DHT22;1976;51.694;6.256;2022-07-22T09:33:00;26.70;99.50
3923;DHT22;1976;51.694;6.256;2022-07-22T09:35:26;26.90;97.70
3923;DHT22;1976;51.694;6.256;2022-07-22T09:37:57;27.00;97.90
3923;DHT22;1976;51.694;6.256;2022-07-22T09:40:26;27.20;98.30
3923;DHT22;1976;51.694;6.256;2022-07-22T09:42:53;27.30;96.80
3923;DHT22;1976;51.694;6.256;2022-07-22T09:45:20;27.40;96.80
3923;DHT22;1976;51.694;6.256;2022-07-22T09:47:48;27.50;96.80
3923;DHT22;1976;51.694;6.256;2022-07-22T09:50:33;27.60;96.50
3923;DHT22;1976;51.694;6.256;2022-07-22T09:53:00;28.10;95.60
3923;DHT22;1976;51.694;6.256;2022-07-22T09:55:27;28.20;95.60
3923;DHT22;1976;51.694;6.256;2022-07-22T09:57:56;28.20;95.40
3923;DHT22;1976;51.694;6.256;2022-07-22T10:00:24;28.20;94.80
3923;DHT22;1976;51.694;6.256;2022-07-22T10:03:01;28.00;94.00
3923;DHT22;1976;51.694;6.256;2022-07-22T10:05:30;28.10;94.10
3923;DHT22;1976;51.694;6.256;2022-07-22T10:07:56;28.20;93.10
3923;DHT22;1976;51.694;6.256;2022-07-22T10:10:25;28.60;92.10
3923;DHT22;1976;51.694;6.256;2022-07-22T10:12:53;29.10;90.50
3923;DHT22;1976;51.694;6.256;2022-07-22T10:15:20;29.90;88.40
3923;DHT22;1976;51.694;6.256;2022-07-22T10:17:48;31.90;84.80
3923;DHT22;1976;51.694;6.256;2022-07-22T10:20:23;34.20;82.70
3923;DHT22;1976;51.694;6.256;2022-07-22T10:22:55;35.60;79.00
3923;DHT22;1976;51.694;6.256;2022-07-22T10:25:23;35.90;76.10
3923;DHT22;1976;51.694;6.256;2022-07-22T10:28:05;35.20;74.70
3923;DHT22;1976;51.694;6.256;2022-07-22T10:30:36;34.40;75.60
3923;DHT22;1976;51.694;6.256;2022-07-22T10:33:14;34.10;74.60
3923;DHT22;1976;51.694;6.256;2022-07-22T10:38:10;38.30;61.40
3923;DHT22;1976;51.694;6.256;2022-07-22T10:40:58;39.30;56.80
3923;DHT22;1976;51.694;6.256;2022-07-22T10:45:58;37.30;58.50
3923;DHT22;1976;51.694;6.256;2022-07-22T10:53:40;41.20;51.10
3923;DHT22;1976;51.694;6.256;2022-07-22T10:59:09;38.40;52.30
3923;DHT22;1976;51.694;6.256;2022-07-22T11:01:38;36.60;54.40
3923;DHT22;1976;51.694;6.256;2022-07-22T11:04:10;35.30;54.90
3923;DHT22;1976;51.694;6.256;2022-07-22T11:06:36;34.20;56.30
3923;DHT22;1976;51.694;6.256;2022-07-22T11:09:05;35.30;56.30
3923;DHT22;1976;51.694;6.256;2022-07-22T11:11:45;37.90;55.80
3923;DHT22;1976;51.694;6.256;2022-07-22T11:14:15;40.70;53.00
3923;DHT22;1976;51.694;6.256;2022-07-22T11:16:41;41.50;46.90
3923;DHT22;1976;51.694;6.256;2022-07-22T11:19:07;39.70;47.40
3923;DHT22;1976;51.694;6.256;2022-07-22T11:21:34;37.60;50.70
3923;DHT22;1976;51.694;6.256;2022-07-22T11:24:03;36.10;52.90
3923;DHT22;1976;51.694;6.256;2022-07-22T11:29:03;33.70;56.30
3923;DHT22;1976;51.694;6.256;2022-07-22T11:31:29;32.90;58.10
3923;DHT22;1976;51.694;6.256;2022-07-22T11:34:24;32.30;58.50
3923;DHT22;1976;51.694;6.256;2022-07-22T11:36:51;33.10;57.70
3923;DHT22;1976;51.694;6.256;2022-07-22T11:39:23;34.80;55.90
3923;DHT22;1976;51.694;6.256;2022-07-22T11:41:50;37.20;54.90
3923;DHT22;1976;51.694;6.256;2022-07-22T11:44:22;39.50;54.40
3923;DHT22;1976;51.694;6.256;2022-07-22T11:46:48;41.30;51.90
3923;DHT22;1976;51.694;6.256;2022-07-22T11:49:19;42.50;49.40
3923;DHT22;1976;51.694;6.256;2022-07-22T11:51:45;43.10;45.40
3923;DHT22;1976;51.694;6.256;2022-07-22T11:54:11;43.30;43.00
3923;DHT22;1976;51.694;6.256;2022-07-22T11:56:37;43.50;41.40
3923;DHT22;1976;51.694;6.256;2022-07-22T11:59:04;43.50;39.90
3923;DHT22;1976;51.694;6.256;2022-07-22T12:01:36;43.60;40.60
3923;DHT22;1976;51.694;6.256;2022-07-22T12:04:07;44.40;42.30
3923;DHT22;1976;51.694;6.256;2022-07-22T12:06:36;43.90;40.60
3923;DHT22;1976;51.694;6.256;2022-07-22T12:09:05;43.40;41.30
3923;DHT22;1976;51.694;6.256;2022-07-22T12:11:31;43.20;39.90
3923;DHT22;1976;51.694;6.256;2022-07-22T12:14:07;41.90;39.00
3923;DHT22;1976;51.694;6.256;2022-07-22T12:16:35;40.70;42.10
3923;DHT22;1976;51.694;6.256;2022-07-22T12:19:04;40.30;44.00
3923;DHT22;1976;51.694;6.256;2022-07-22T12:21:35;39.60;44.50
3923;DHT22;1976;51.694;6.256;2022-07-22T12:24:05;38.50;45.20
3923;DHT22;1976;51.694;6.256;2022-07-22T12:26:41;37.50;46.70
3923;DHT22;1976;51.694;6.256;2022-07-22T12:31:44;36.00;47.70
3923;DHT22;1976;51.694;6.256;2022-07-22T12:34:11;35.60;47.50
3923;DHT22;1976;51.694;6.256;2022-07-22T12:36:37;35.60;48.00
3923;DHT22;1976;51.694;6.256;2022-07-22T12:39:18;36.50;48.90
3923;DHT22;1976;51.694;6.256;2022-07-22T12:41:52;38.40;46.80
3923;DHT22;1976;51.694;6.256;2022-07-22T12:44:24;39.90;46.30
3923;DHT22;1976;51.694;6.256;2022-07-22T12:46:52;40.50;43.20
3923;DHT22;1976;51.694;6.256;2022-07-22T12:49:21;41.00;42.80
3923;DHT22;1976;51.694;6.256;2022-07-22T12:52:10;41.00;42.60
3923;DHT22;1976;51.694;6.256;2022-07-22T12:54:38;39.30;43.00
3923;DHT22;1976;51.694;6.256;2022-07-22T12:57:05;39.30;43.50
3923;DHT22;1976;51.694;6.256;2022-07-22T12:59:31;39.20;42.90
3923;DHT22;1976;51.694;6.256;2022-07-22T13:01:57;39.20;43.40
3923;DHT22;1976;51.694;6.256;2022-07-22T13:04:22;39.40;43.50
3923;DHT22;1976;51.694;6.256;2022-07-22T13:06:48;40.10;43.80
3923;DHT22;1976;51.694;6.256;2022-07-22T13:09:14;41.10;43.00
3923;DHT22;1976;51.694;6.256;2022-07-22T13:11:40;41.90;40.10
3923;DHT22;1976;51.694;6.256;2022-07-22T13:14:09;42.20;40.40
3923;DHT22;1976;51.694;6.256;2022-07-22T13:16:35;42.20;41.20
3923;DHT22;1976;51.694;6.256;2022-07-22T13:19:01;41.80;39.90
3923;DHT22;1976;51.694;6.256;2022-07-22T13:21:27;41.20;38.70
3923;DHT22;1976;51.694;6.256;2022-07-22T13:23:53;40.50;40.30
3923;DHT22;1976;51.694;6.256;2022-07-22T13:26:19;40.50;41.70
3923;DHT22;1976;51.694;6.256;2022-07-22T13:28:45;40.80;41.60
3923;DHT22;1976;51.694;6.256;2022-07-22T13:33:36;41.80;41.90
3923;DHT22;1976;51.694;6.256;2022-07-22T13:36:02;42.30;42.20
3923;DHT22;1976;51.694;6.256;2022-07-22T13:38:30;42.50;42.30
3923;DHT22;1976;51.694;6.256;2022-07-22T13:40:56;42.20;39.50
3923;DHT22;1976;51.694;6.256;2022-07-22T13:43:23;42.10;40.20
3923;DHT22;1976;51.694;6.256;2022-07-22T13:45:50;40.20;41.80
3923;DHT22;1976;51.694;6.256;2022-07-22T13:48:16;40.10;42.40
3923;DHT22;1976;51.694;6.256;2022-07-22T13:50:46;39.10;43.40
3923;DHT22;1976;51.694;6.256;2022-07-22T13:53:12;38.20;43.60
3923;DHT22;1976;51.694;6.256;2022-07-22T13:55:39;37.30;43.70
3923;DHT22;1976;51.694;6.256;2022-07-22T13:58:04;36.40;44.60
3923;DHT22;1976;51.694;6.256;2022-07-22T14:00:30;35.90;45.20
3923;DHT22;1976;51.694;6.256;2022-07-22T14:02:56;36.00;48.00
3923;DHT22;1976;51.694;6.256;2022-07-22T14:05:22;36.00;48.50
3923;DHT22;1976;51.694;6.256;2022-07-22T14:07:47;36.50;47.70
3923;DHT22;1976;51.694;6.256;2022-07-22T14:10:13;36.80;47.10
3923;DHT22;1976;51.694;6.256;2022-07-22T14:12:40;36.80;47.70
3923;DHT22;1976;51.694;6.256;2022-07-22T14:15:06;36.60;48.20
3923;DHT22;1976;51.694;6.256;2022-07-22T14:17:33;36.60;47.10
3923;DHT22;1976;51.694;6.256;2022-07-22T14:19:59;36.60;47.60
3923;DHT22;1976;51.694;6.256;2022-07-22T14:22:25;36.80;48.60
3923;DHT22;1976;51.694;6.256;2022-07-22T14:24:51;36.80;49.10
3923;DHT22;1976;51.694;6.256;2022-07-22T14:27:16;37.60;46.00
3923;DHT22;1976;51.694;6.256;2022-07-22T14:29:42;37.70;46.70
3923;DHT22;1976;51.694;6.256;2022-07-22T14:32:08;38.30;46.80
3923;DHT22;1976;51.694;6.256;2022-07-22T14:34:34;38.60;46.60
3923;DHT22;1976;51.694;6.256;2022-07-22T14:36:59;38.30;46.10
3923;DHT22;1976;51.694;6.256;2022-07-22T14:39:25;37.80;46.10
3923;DHT22;1976;51.694;6.256;2022-07-22T14:41:51;37.60;45.40
3923;DHT22;1976;51.694;6.256;2022-07-22T14:44:16;37.50;45.80
3923;DHT22;1976;51.694;6.256;2022-07-22T14:46:42;37.50;45.90
3923;DHT22;1976;51.694;6.256;2022-07-22T14:49:08;37.70;46.80
3923;DHT22;1976;51.694;6.256;2022-07-22T14:51:34;38.00;44.60
3923;DHT22;1976;51.694;6.256;2022-07-22T14:53:59;37.90;45.10
3923;DHT22;1976;51.694;6.256;2022-07-22T14:56:25;37.90;44.80
3923;DHT22;1976;51.694;6.256;2022-07-22T14:58:51;37.80;44.60
3923;DHT22;1976;51.694;6.256;2022-07-22T15:01:16;37.80;44.30
3923;DHT22;1976;51.694;6.256;2022-07-22T15:03:42;37.70;43.30
3923;DHT22;1976;51.694;6.256;2022-07-22T15:06:09;37.60;44.70
3923;DHT22;1976;51.694;6.256;2022-07-22T15:08:35;37.20;45.90
3923;DHT22;1976;51.694;6.256;2022-07-22T15:11:01;37.30;46.50
3923;DHT22;1976;51.694;6.256;2022-07-22T15:13:27;36.90;45.70
3923;DHT22;1976;51.694;6.256;2022-07-22T15:15:54;36.90;46.20
3923;DHT22;1976;51.694;6.256;2022-07-22T15:18:20;36.50;46.10
3923;DHT22;1976;51.694;6.256;2022-07-22T15:20:46;36.20;45.90
3923;DHT22;1976;51.694;6.256;2022-07-22T15:23:13;35.60;46.00
3923;DHT22;1976;51.694;6.256;2022-07-22T15:25:39;35.70;46.50
3923;DHT22;1976;51.694;6.256;2022-07-22T15:28:05;34.80;47.50
3923;DHT22;1976;51.694;6.256;2022-07-22T15:30:32;34.80;48.50
3923;DHT22;1976;51.694;6.256;2022-07-22T15:32:57;35.20;46.90
3923;DHT22;1976;51.694;6.256;2022-07-22T15:35:23;35.30;47.50
3923;DHT22;1976;51.694;6.256;2022-07-22T15:37:49;35.50;46.90
3923;DHT22;1976;51.694;6.256;2022-07-22T15:40:14;35.60;47.50
3923;DHT22;1976;51.694;6.256;2022-07-22T15:42:41;35.30;48.00
3923;DHT22;1976;51.694;6.256;2022-07-22T15:45:08;35.00;48.80
3923;DHT22;1976;51.694;6.256;2022-07-22T15:47:34;34.70;47.80
3923;DHT22;1976;51.694;6.256;2022-07-22T15:50:00;34.60;47.40
3923;DHT22;1976;51.694;6.256;2022-07-22T15:52:25;34.60;48.00
3923;DHT22;1976;51.694;6.256;2022-07-22T15:54:51;34.40;49.00
3923;DHT22;1976;51.694;6.256;2022-07-22T15:57:18;34.30;49.50
3923;DHT22;1976;51.694;6.256;2022-07-22T16:00:04;33.90;48.80
3923;DHT22;1976;51.694;6.256;2022-07-22T16:02:30;33.90;49.10
3923;DHT22;1976;51.694;6.256;2022-07-22T16:04:56;32.70;48.40
3923;DHT22;1976;51.694;6.256;2022-07-22T16:07:21;33.10;50.20
3923;DHT22;1976;51.694;6.256;2022-07-22T16:09:47;32.80;50.90
3923;DHT22;1976;51.694;6.256;2022-07-22T16:12:13;32.70;51.50
3923;DHT22;1976;51.694;6.256;2022-07-22T16:14:38;32.20;51.90
3923;DHT22;1976;51.694;6.256;2022-07-22T16:17:04;29.20;50.40
3923;DHT22;1976;51.694;6.256;2022-07-22T16:19:30;31.80;52.40
3923;DHT22;1976;51.694;6.256;2022-07-22T16:21:55;31.40;52.80
3923;DHT22;1976;51.694;6.256;2022-07-22T16:24:21;31.30;53.30
3923;DHT22;1976;51.694;6.256;2022-07-22T16:26:47;31.00;54.30
3923;DHT22;1976;51.694;6.256;2022-07-22T16:29:12;28.00;52.10
3923;DHT22;1976;51.694;6.256;2022-07-22T16:31:38;31.00;55.30
3923;DHT22;1976;51.694;6.256;2022-07-22T16:34:04;31.00;55.60
3923;DHT22;1976;51.694;6.256;2022-07-22T16:36:30;31.30;54.60
3923;DHT22;1976;51.694;6.256;2022-07-22T16:38:56;31.10;54.30
3923;DHT22;1976;51.694;6.256;2022-07-22T16:41:22;30.90;52.90